sensor_id;sensor_type;location;lat;lon;timestamp;pressure;altitude;pressure_sealevel;temperature;humidity
75852;BME280;64500;52.632;20.656;2023-06-14T00:00:00;100626.36;;;10.99;95.49
75852;BME280;64500;52.632;20.656;2023-06-14T00:02:28;100619.83;;;10.98;95.62
75852;BME280;64500;52.632;20.656;2023-06-14T00:04:55;100614.73;;;10.97;95.80
75852;BME280;64500;52.632;20.656;2023-06-14T00:07:41;100613.70;;;10.96;95.81
75852;BME280;64500;52.632;20.656;2023-06-14T00:10:12;100614.25;;;10.95;96.14
75852;BME280;64500;52.632;20.656;2023-06-14T00:12:39;100619.33;;;10.97;96.20
75852;BME280;64500;52.632;20.656;2023-06-14T00:15:08;100620.55;;;10.98;96.28
75852;BME280;64500;52.632;20.656;2023-06-14T00:17:36;100618.93;;;10.99;96.36
75852;BME280;64500;52.632;20.656;2023-06-14T00:20:06;100617.70;;;10.99;96.44
75852;BME280;64500;52.632;20.656;2023-06-14T00:22:55;100607.08;;;10.99;96.63
75852;BME280;64500;52.632;20.656;2023-06-14T00:25:23;100610.80;;;10.99;96.85
75852;BME280;64500;52.632;20.656;2023-06-14T00:28:03;100612.20;;;10.99;96.72
75852;BME280;64500;52.632;20.656;2023-06-14T00:30:30;100612.40;;;10.99;96.98
75852;BME280;64500;52.632;20.656;2023-06-14T00:33:05;100611.46;;;11.01;97.16
75852;BME280;64500;52.632;20.656;2023-06-14T00:35:32;100606.65;;;11.02;97.09
75852;BME280;64500;52.632;20.656;2023-06-14T00:37:59;100599.95;;;11.01;96.98
75852;BME280;64500;52.632;20.656;2023-06-14T00:40:27;100594.11;;;11.01;97.01
75852;BME280;64500;52.632;20.656;2023-06-14T00:42:54;100595.52;;;11.02;97.12
75852;BME280;64500;52.632;20.656;2023-06-14T00:45:21;100598.15;;;11.03;97.27
75852;BME280;64500;52.632;20.656;2023-06-14T00:47:58;100600.06;;;11.05;97.30
75852;BME280;64500;52.632;20.656;2023-06-14T00:50:26;100598.98;;;11.06;97.18
75852;BME280;64500;52.632;20.656;2023-06-14T00:52:53;100593.86;;;11.05;97.36
75852;BME280;64500;52.632;20.656;2023-06-14T00:55:20;100595.61;;;11.05;97.12
75852;BME280;64500;52.632;20.656;2023-06-14T00:57:48;100592.95;;;11.05;97.23
75852;BME280;64500;52.632;20.656;2023-06-14T01:00:16;100590.33;;;11.05;97.07
75852;BME280;64500;52.632;20.656;2023-06-14T01:02:43;100584.16;;;11.04;97.01
75852;BME280;64500;52.632;20.656;2023-06-14T01:05:10;100583.44;;;11.05;97.06
75852;BME280;64500;52.632;20.656;2023-06-14T01:13:31;100571.66;;;11.01;97.27
75852;BME280;64500;52.632;20.656;2023-06-14T01:15:59;100568.36;;;10.99;97.30
75852;BME280;64500;52.632;20.656;2023-06-14T01:18:31;100565.61;;;10.96;97.55
75852;BME280;64500;52.632;20.656;2023-06-14T01:20:59;100571.98;;;10.95;97.76
75852;BME280;64500;52.632;20.656;2023-06-14T01:23:26;100570.71;;;10.97;98.00
75852;BME280;64500;52.632;20.656;2023-06-14T01:26:00;100566.59;;;10.99;98.09
75852;BME280;64500;52.632;20.656;2023-06-14T01:28:33;100567.95;;;11.01;98.06
75852;BME280;64500;52.632;20.656;2023-06-14T01:31:05;100566.81;;;11.04;98.13
75852;BME280;64500;52.632;20.656;2023-06-14T01:33:33;100569.23;;;11.07;98.30
75852;BME280;64500;52.632;20.656;2023-06-14T01:36:06;100576.59;;;11.10;98.46
75852;BME280;64500;52.632;20.656;2023-06-14T01:38:36;100573.70;;;11.13;98.36
75852;BME280;64500;52.632;20.656;2023-06-14T01:41:04;100577.72;;;11.15;98.59
75852;BME280;64500;52.632;20.656;2023-06-14T01:43:32;100571.15;;;11.16;98.49
75852;BME280;64500;52.632;20.656;2023-06-14T01:46:02;100569.17;;;11.17;98.40
75852;BME280;64500;52.632;20.656;2023-06-14T01:48:30;100562.33;;;11.15;98.31
75852;BME280;64500;52.632;20.656;2023-06-14T01:50:57;100562.15;;;11.15;98.28
75852;BME280;64500;52.632;20.656;2023-06-14T01:53:24;100557.39;;;11.14;98.21
75852;BME280;64500;52.632;20.656;2023-06-14T01:55:51;100553.52;;;11.12;98.25
75852;BME280;64500;52.632;20.656;2023-06-14T01:58:20;100553.21;;;11.11;98.43
75852;BME280;64500;52.632;20.656;2023-06-14T02:00:57;100550.58;;;11.10;98.52
75852;BME280;64500;52.632;20.656;2023-06-14T02:03:24;100545.98;;;11.10;98.49
75852;BME280;64500;52.632;20.656;2023-06-14T02:05:52;100545.54;;;11.06;98.62
75852;BME280;64500;52.632;20.656;2023-06-14T02:08:19;100546.55;;;11.08;98.94
75852;BME280;64500;52.632;20.656;2023-06-14T02:10:49;100547.92;;;11.10;99.09
75852;BME280;64500;52.632;20.656;2023-06-14T02:13:16;100551.55;;;11.14;99.08
75852;BME280;64500;52.632;20.656;2023-06-14T02:15:43;100548.52;;;11.15;98.93
75852;BME280;64500;52.632;20.656;2023-06-14T02:18:12;100552.36;;;11.17;99.24
75852;BME280;64500;52.632;20.656;2023-06-14T02:20:39;100552.36;;;11.17;99.12
75852;BME280;64500;52.632;20.656;2023-06-14T02:23:06;100552.27;;;11.20;99.32
75852;BME280;64500;52.632;20.656;2023-06-14T02:25:34;100551.87;;;11.23;99.21
75852;BME280;64500;52.632;20.656;2023-06-14T02:28:02;100554.66;;;11.24;99.20
75852;BME280;64500;52.632;20.656;2023-06-14T02:30:29;100553.95;;;11.24;99.25
75852;BME280;64500;52.632;20.656;2023-06-14T02:32:57;100552.14;;;11.26;99.26
75852;BME280;64500;52.632;20.656;2023-06-14T02:35:28;100553.73;;;11.27;99.07
75852;BME280;64500;52.632;20.656;2023-06-14T02:38:15;100557.59;;;11.27;99.19
75852;BME280;64500;52.632;20.656;2023-06-14T02:40:42;100555.06;;;11.29;99.21
75852;BME280;64500;52.632;20.656;2023-06-14T02:43:12;100561.20;;;11.32;99.29
75852;BME280;64500;52.632;20.656;2023-06-14T02:45:39;100566.64;;;11.34;99.29
75852;BME280;64500;52.632;20.656;2023-06-14T02:48:07;100565.05;;;11.35;99.35
75852;BME280;64500;52.632;20.656;2023-06-14T02:50:34;100570.36;;;11.35;99.49
75852;BME280;64500;52.632;20.656;2023-06-14T02:53:01;100566.05;;;11.37;99.57
75852;BME280;64500;52.632;20.656;2023-06-14T02:55:29;100561.30;;;11.35;99.61
75852;BME280;64500;52.632;20.656;2023-06-14T02:57:56;100566.39;;;11.37;99.46
75852;BME280;64500;52.632;20.656;2023-06-14T03:00:24;100566.57;;;11.37;99.55
75852;BME280;64500;52.632;20.656;2023-06-14T03:02:51;100567.80;;;11.38;99.99
75852;BME280;64500;52.632;20.656;2023-06-14T03:05:18;100562.42;;;11.40;99.95
75852;BME280;64500;52.632;20.656;2023-06-14T03:07:48;100566.16;;;11.39;99.79
75852;BME280;64500;52.632;20.656;2023-06-14T03:10:17;100565.86;;;11.37;99.72
75852;BME280;64500;52.632;20.656;2023-06-14T03:12:44;100567.19;;;11.41;99.94
75852;BME280;64500;52.632;20.656;2023-06-14T03:15:11;100567.61;;;11.45;100.00
75852;BME280;64500;52.632;20.656;2023-06-14T03:17:39;100561.42;;;11.45;99.90
75852;BME280;64500;52.632;20.656;2023-06-14T03:20:12;100561.63;;;11.44;99.87
75852;BME280;64500;52.632;20.656;2023-06-14T03:22:39;100563.46;;;11.47;100.00
75852;BME280;64500;52.632;20.656;2023-06-14T03:25:07;100567.66;;;11.57;100.00
75852;BME280;64500;52.632;20.656;2023-06-14T03:27:35;100571.16;;;11.65;100.00
75852;BME280;64500;52.632;20.656;2023-06-14T03:30:02;100572.77;;;11.71;100.00
75852;BME280;64500;52.632;20.656;2023-06-14T03:32:30;100568.41;;;11.69;99.93
75852;BME280;64500;52.632;20.656;2023-06-14T03:34:59;100574.14;;;11.67;99.82
75852;BME280;64500;52.632;20.656;2023-06-14T03:37:26;100570.83;;;11.71;99.96
75852;BME280;64500;52.632;20.656;2023-06-14T03:39:56;100570.05;;;11.74;99.97
75852;BME280;64500;52.632;20.656;2023-06-14T03:42:27;100563.36;;;11.80;100.00
75852;BME280;64500;52.632;20.656;2023-06-14T03:44:54;100566.29;;;11.83;100.00
75852;BME280;64500;52.632;20.656;2023-06-14T03:47:21;100574.71;;;11.87;100.00
75852;BME280;64500;52.632;20.656;2023-06-14T03:49:48;100570.44;;;11.88;99.84
75852;BME280;64500;52.632;20.656;2023-06-14T03:52:15;100575.73;;;11.89;99.96
75852;BME280;64500;52.632;20.656;2023-06-14T03:54:44;100574.28;;;11.90;99.84
75852;BME280;64500;52.632;20.656;2023-06-14T03:57:11;100578.77;;;11.95;99.88
75852;BME280;64500;52.632;20.656;2023-06-14T03:59:38;100580.20;;;11.94;99.85
75852;BME280;64500;52.632;20.656;2023-06-14T04:02:05;100584.17;;;11.97;99.89
75852;BME280;64500;52.632;20.656;2023-06-14T04:04:36;100577.88;;;12.01;99.85
75852;BME280;64500;52.632;20.656;2023-06-14T04:07:06;100573.91;;;12.04;99.84
75852;BME280;64500;52.632;20.656;2023-06-14T04:09:37;100573.98;;;12.08;99.91
75852;BME280;64500;52.632;20.656;2023-06-14T04:14:45;100562.17;;;12.18;99.69
75852;BME280;64500;52.632;20.656;2023-06-14T04:17:12;100561.88;;;12.28;99.88
75852;BME280;64500;52.632;20.656;2023-06-14T04:19:39;100562.52;;;12.43;100.00
75852;BME280;64500;52.632;20.656;2023-06-14T04:22:15;100564.48;;;12.62;100.00
75852;BME280;64500;52.632;20.656;2023-06-14T04:24:45;100562.32;;;12.69;99.88
75852;BME280;64500;52.632;20.656;2023-06-14T04:27:13;100559.88;;;12.73;99.61
75852;BME280;64500;52.632;20.656;2023-06-14T04:29:44;100561.84;;;12.78;99.29
75852;BME280;64500;52.632;20.656;2023-06-14T04:32:16;100564.67;;;12.95;99.66
75852;BME280;64500;52.632;20.656;2023-06-14T04:34:45;100559.64;;;13.20;99.89
75852;BME280;64500;52.632;20.656;2023-06-14T04:37:15;100559.93;;;13.39;99.71
75852;BME280;64500;52.632;20.656;2023-06-14T04:39:44;100559.27;;;13.54;98.90
75852;BME280;64500;52.632;20.656;2023-06-14T04:42:12;100560.06;;;13.67;98.51
75852;BME280;64500;52.632;20.656;2023-06-14T04:44:43;100554.65;;;13.75;97.44
75852;BME280;64500;52.632;20.656;2023-06-14T04:47:12;100553.59;;;13.85;96.97
75852;BME280;64500;52.632;20.656;2023-06-14T04:49:48;100555.30;;;14.07;97.46
75852;BME280;64500;52.632;20.656;2023-06-14T04:52:27;100554.42;;;14.31;97.35
75852;BME280;64500;52.632;20.656;2023-06-14T04:54:57;100556.54;;;14.36;96.34
75852;BME280;64500;52.632;20.656;2023-06-14T04:57:24;100555.23;;;14.43;95.84
75852;BME280;64500;52.632;20.656;2023-06-14T04:59:52;100557.23;;;14.47;95.07
75852;BME280;64500;52.632;20.656;2023-06-14T05:02:23;100557.26;;;14.51;94.66
75852;BME280;64500;52.632;20.656;2023-06-14T05:04:53;100560.54;;;14.59;94.57
75852;BME280;64500;52.632;20.656;2023-06-14T05:07:28;100555.63;;;14.71;94.69
75852;BME280;64500;52.632;20.656;2023-06-14T05:09:59;100560.00;;;14.82;94.28
75852;BME280;64500;52.632;20.656;2023-06-14T05:12:26;100562.95;;;14.79;93.18
75852;BME280;64500;52.632;20.656;2023-06-14T05:14:54;100568.77;;;14.85;93.49
75852;BME280;64500;52.632;20.656;2023-06-14T05:17:21;100567.60;;;14.97;93.68
75852;BME280;64500;52.632;20.656;2023-06-14T05:19:49;100566.43;;;15.18;93.95
75852;BME280;64500;52.632;20.656;2023-06-14T05:22:17;100562.27;;;15.32;93.66
75852;BME280;64500;52.632;20.656;2023-06-14T05:24:44;100561.77;;;15.32;92.50
75852;BME280;64500;52.632;20.656;2023-06-14T05:27:19;100563.58;;;15.35;92.37
75852;BME280;64500;52.632;20.656;2023-06-14T05:29:51;100562.72;;;15.43;92.53
75852;BME280;64500;52.632;20.656;2023-06-14T05:32:22;100560.98;;;15.46;91.57
75852;BME280;64500;52.632;20.656;2023-06-14T05:34:52;100562.10;;;15.45;91.28
75852;BME280;64500;52.632;20.656;2023-06-14T05:37:19;100566.05;;;15.49;91.34
75852;BME280;64500;52.632;20.656;2023-06-14T05:39:46;100565.34;;;15.53;91.26
75852;BME280;64500;52.632;20.656;2023-06-14T05:42:14;100561.05;;;15.53;90.76
75852;BME280;64500;52.632;20.656;2023-06-14T05:44:44;100568.23;;;15.52;90.39
75852;BME280;64500;52.632;20.656;2023-06-14T05:47:12;100569.23;;;15.49;90.02
75852;BME280;64500;52.632;20.656;2023-06-14T05:49:39;100570.67;;;15.49;90.21
75852;BME280;64500;52.632;20.656;2023-06-14T05:52:09;100567.98;;;15.49;89.91
75852;BME280;64500;52.632;20.656;2023-06-14T05:54:37;100568.39;;;15.48;89.85
75852;BME280;64500;52.632;20.656;2023-06-14T05:57:23;100572.86;;;15.52;89.92
75852;BME280;64500;52.632;20.656;2023-06-14T05:59:50;100573.60;;;15.51;89.48
75852;BME280;64500;52.632;20.656;2023-06-14T06:02:18;100575.36;;;15.52;89.38
75852;BME280;64500;52.632;20.656;2023-06-14T06:04:45;100572.95;;;15.24;88.75
75852;BME280;64500;52.632;20.656;2023-06-14T06:07:12;100571.42;;;14.95;88.88
75852;BME280;64500;52.632;20.656;2023-06-14T06:09:39;100574.10;;;14.85;89.64
75852;BME280;64500;52.632;20.656;2023-06-14T06:12:07;100577.14;;;14.76;89.93
75852;BME280;64500;52.632;20.656;2023-06-14T06:14:34;100578.69;;;14.73;90.31
75852;BME280;64500;52.632;20.656;2023-06-14T06:17:01;100585.40;;;14.74;90.82
75852;BME280;64500;52.632;20.656;2023-06-14T06:19:34;100583.29;;;14.83;91.48
75852;BME280;64500;52.632;20.656;2023-06-14T06:22:01;100579.89;;;14.78;90.62
75852;BME280;64500;52.632;20.656;2023-06-14T06:24:28;100578.92;;;14.76;90.65
75852;BME280;64500;52.632;20.656;2023-06-14T06:26:56;100581.71;;;14.69;90.08
75852;BME280;64500;52.632;20.656;2023-06-14T06:29:24;100584.23;;;14.63;89.91
75852;BME280;64500;52.632;20.656;2023-06-14T06:31:53;100586.23;;;14.71;90.82
75852;BME280;64500;52.632;20.656;2023-06-14T06:34:24;100595.81;;;14.85;91.05
75852;BME280;64500;52.632;20.656;2023-06-14T06:36:57;100592.23;;;14.96;90.84
75852;BME280;64500;52.632;20.656;2023-06-14T06:39:24;100591.50;;;15.01;90.42
75852;BME280;64500;52.632;20.656;2023-06-14T06:41:52;100590.80;;;15.00;89.73
75852;BME280;64500;52.632;20.656;2023-06-14T06:44:28;100596.55;;;14.95;89.18
75852;BME280;64500;52.632;20.656;2023-06-14T06:46:57;100595.51;;;14.94;89.37
75852;BME280;64500;52.632;20.656;2023-06-14T06:49:28;100599.16;;;15.00;90.00
75852;BME280;64500;52.632;20.656;2023-06-14T06:52:06;100604.73;;;15.12;90.37
75852;BME280;64500;52.632;20.656;2023-06-14T06:54:44;100607.31;;;15.19;89.60
75852;BME280;64500;52.632;20.656;2023-06-14T06:57:11;100603.08;;;15.27;89.58
75852;BME280;64500;52.632;20.656;2023-06-14T06:59:41;100605.90;;;15.41;89.78
75852;BME280;64500;52.632;20.656;2023-06-14T07:02:11;100611.16;;;15.52;89.77
75852;BME280;64500;52.632;20.656;2023-06-14T07:04:39;100609.90;;;15.70;89.91
75852;BME280;64500;52.632;20.656;2023-06-14T07:07:09;100615.56;;;16.01;90.67
75852;BME280;64500;52.632;20.656;2023-06-14T07:09:39;100618.58;;;16.22;89.82
75852;BME280;64500;52.632;20.656;2023-06-14T07:12:10;100618.57;;;16.46;89.95
75852;BME280;64500;52.632;20.656;2023-06-14T07:14:38;100626.79;;;16.74;89.97
75852;BME280;64500;52.632;20.656;2023-06-14T07:17:05;100616.31;;;17.04;90.62
75852;BME280;64500;52.632;20.656;2023-06-14T07:19:33;100620.73;;;17.13;88.86
75852;BME280;64500;52.632;20.656;2023-06-14T07:22:03;100618.30;;;17.19;88.49
75852;BME280;64500;52.632;20.656;2023-06-14T07:24:30;100622.52;;;17.31;88.00
75852;BME280;64500;52.632;20.656;2023-06-14T07:26:57;100625.81;;;17.44;88.22
75852;BME280;64500;52.632;20.656;2023-06-14T07:29:25;100632.16;;;17.57;87.85
75852;BME280;64500;52.632;20.656;2023-06-14T07:32:15;100632.58;;;17.56;87.01
75852;BME280;64500;52.632;20.656;2023-06-14T07:34:42;100633.77;;;17.60;86.81
75852;BME280;64500;52.632;20.656;2023-06-14T07:37:20;100632.33;;;17.68;86.45
75852;BME280;64500;52.632;20.656;2023-06-14T07:39:53;100632.02;;;17.74;86.10
75852;BME280;64500;52.632;20.656;2023-06-14T07:42:33;100631.42;;;17.86;85.64
75852;BME280;64500;52.632;20.656;2023-06-14T07:45:08;100629.66;;;18.00;85.09
75852;BME280;64500;52.632;20.656;2023-06-14T07:47:35;100629.77;;;18.09;84.44
75852;BME280;64500;52.632;20.656;2023-06-14T07:50:03;100634.86;;;18.17;84.25
75852;BME280;64500;52.632;20.656;2023-06-14T07:52:30;100630.26;;;18.30;83.71
75852;BME280;64500;52.632;20.656;2023-06-14T07:54:58;100630.46;;;18.47;83.59
75852;BME280;64500;52.632;20.656;2023-06-14T07:57:28;100628.10;;;18.67;82.98
75852;BME280;64500;52.632;20.656;2023-06-14T07:59:55;100626.09;;;18.82;82.88
75852;BME280;64500;52.632;20.656;2023-06-14T08:02:44;100624.46;;;19.21;83.46
75852;BME280;64500;52.632;20.656;2023-06-14T08:05:12;100625.58;;;19.49;82.59
75852;BME280;64500;52.632;20.656;2023-06-14T08:07:50;100624.34;;;19.70;82.03
75852;BME280;64500;52.632;20.656;2023-06-14T08:10:29;100629.94;;;19.97;81.26
75852;BME280;64500;52.632;20.656;2023-06-14T08:13:08;100626.89;;;20.03;79.48
75852;BME280;64500;52.632;20.656;2023-06-14T08:15:36;100621.23;;;19.84;76.83
75852;BME280;64500;52.632;20.656;2023-06-14T08:18:06;100617.23;;;19.63;76.18
75852;BME280;64500;52.632;20.656;2023-06-14T08:20:33;100621.85;;;19.64;76.77
75852;BME280;64500;52.632;20.656;2023-06-14T08:23:03;100629.34;;;19.83;77.25
75852;BME280;64500;52.632;20.656;2023-06-14T08:25:30;100625.88;;;19.96;76.80
75852;BME280;64500;52.632;20.656;2023-06-14T08:28:00;100626.05;;;20.05;75.44
75852;BME280;64500;52.632;20.656;2023-06-14T08:30:38;100619.04;;;19.94;73.85
75852;BME280;64500;52.632;20.656;2023-06-14T08:33:05;100615.14;;;19.68;73.02
75852;BME280;64500;52.632;20.656;2023-06-14T08:35:33;100609.80;;;19.58;72.79
75852;BME280;64500;52.632;20.656;2023-06-14T08:38:29;100613.77;;;19.52;72.61
75852;BME280;64500;52.632;20.656;2023-06-14T08:41:24;100614.88;;;19.63;73.16
75852;BME280;64500;52.632;20.656;2023-06-14T08:44:04;100608.46;;;19.66;72.27
75852;BME280;64500;52.632;20.656;2023-06-14T08:46:42;100614.69;;;19.70;72.43
75852;BME280;64500;52.632;20.656;2023-06-14T08:49:12;100617.35;;;19.70;71.35
75852;BME280;64500;52.632;20.656;2023-06-14T08:51:52;100612.55;;;19.54;70.85
75852;BME280;64500;52.632;20.656;2023-06-14T08:54:36;100611.30;;;19.38;70.78
75852;BME280;64500;52.632;20.656;2023-06-14T08:57:31;100612.47;;;19.27;71.03
75852;BME280;64500;52.632;20.656;2023-06-14T09:00:02;100615.15;;;19.14;70.74
75852;BME280;64500;52.632;20.656;2023-06-14T09:02:43;100616.79;;;19.01;71.14
75852;BME280;64500;52.632;20.656;2023-06-14T09:05:10;100620.69;;;18.89;70.97
75852;BME280;64500;52.632;20.656;2023-06-14T09:07:47;100620.97;;;18.70;70.97
75852;BME280;64500;52.632;20.656;2023-06-14T09:13:28;100622.71;;;18.37;71.26
75852;BME280;64500;52.632;20.656;2023-06-14T09:15:55;100629.45;;;18.21;71.67
75852;BME280;64500;52.632;20.656;2023-06-14T09:18:36;100630.30;;;18.16;72.26
75852;BME280;64500;52.632;20.656;2023-06-14T09:21:06;100631.30;;;18.24;72.79
75852;BME280;64500;52.632;20.656;2023-06-14T09:23:41;100631.39;;;18.15;72.18
75852;BME280;64500;52.632;20.656;2023-06-14T09:26:15;100632.31;;;18.01;72.15
75852;BME280;64500;52.632;20.656;2023-06-14T09:28:44;100635.67;;;17.91;72.55
75852;BME280;64500;52.632;20.656;2023-06-14T09:31:15;100637.27;;;17.88;72.62
75852;BME280;64500;52.632;20.656;2023-06-14T09:33:45;100640.41;;;17.85;73.05
75852;BME280;64500;52.632;20.656;2023-06-14T09:36:21;100642.51;;;17.97;73.66
75852;BME280;64500;52.632;20.656;2023-06-14T09:39:02;100642.20;;;17.99;73.42
75852;BME280;64500;52.632;20.656;2023-06-14T09:41:40;100647.80;;;18.16;73.87
75852;BME280;64500;52.632;20.656;2023-06-14T09:44:08;100643.98;;;18.24;73.54
75852;BME280;64500;52.632;20.656;2023-06-14T09:46:37;100644.28;;;18.25;73.52
75852;BME280;64500;52.632;20.656;2023-06-14T09:49:07;100648.42;;;18.35;73.72
75852;BME280;64500;52.632;20.656;2023-06-14T09:51:37;100651.46;;;18.52;74.05
75852;BME280;64500;52.632;20.656;2023-06-14T09:54:14;100647.51;;;18.63;73.76
75852;BME280;64500;52.632;20.656;2023-06-14T09:56:45;100650.44;;;18.58;73.17
75852;BME280;64500;52.632;20.656;2023-06-14T09:59:15;100655.58;;;18.52;73.08
75852;BME280;64500;52.632;20.656;2023-06-14T10:01:53;100657.27;;;18.44;73.36
75852;BME280;64500;52.632;20.656;2023-06-14T10:04:29;100654.09;;;18.29;74.00
75852;BME280;64500;52.632;20.656;2023-06-14T10:07:01;100643.96;;;18.31;75.06
75852;BME280;64500;52.632;20.656;2023-06-14T10:09:39;100649.03;;;18.37;75.39
75852;BME280;64500;52.632;20.656;2023-06-14T10:12:17;100652.45;;;18.30;75.69
75852;BME280;64500;52.632;20.656;2023-06-14T10:14:49;100657.63;;;18.02;76.18
75852;BME280;64500;52.632;20.656;2023-06-14T10:21:22;100659.25;;;17.47;80.83
75852;BME280;64500;52.632;20.656;2023-06-14T10:24:13;100654.73;;;17.63;82.24
75852;BME280;64500;52.632;20.656;2023-06-14T10:26:57;100655.64;;;17.99;84.07
75852;BME280;64500;52.632;20.656;2023-06-14T10:29:31;100647.36;;;18.42;84.94
75852;BME280;64500;52.632;20.656;2023-06-14T10:32:24;100642.62;;;19.10;86.87
75852;BME280;64500;52.632;20.656;2023-06-14T10:35:05;100643.39;;;19.67;87.02
75852;BME280;64500;52.632;20.656;2023-06-14T10:37:46;100643.83;;;20.20;86.33
75852;BME280;64500;52.632;20.656;2023-06-14T10:40:31;100639.84;;;20.33;82.39
75852;BME280;64500;52.632;20.656;2023-06-14T10:43:24;100636.91;;;20.60;80.86
75852;BME280;64500;52.632;20.656;2023-06-14T10:46:28;100636.35;;;20.95;78.30
75852;BME280;64500;52.632;20.656;2023-06-14T10:52:08;100633.23;;;21.93;76.06
75852;BME280;64500;52.632;20.656;2023-06-14T10:55:17;100628.45;;;22.45;75.34
75852;BME280;64500;52.632;20.656;2023-06-14T10:57:54;100626.74;;;22.99;74.10
75852;BME280;64500;52.632;20.656;2023-06-14T11:00:53;100623.23;;;23.35;72.62
75852;BME280;64500;52.632;20.656;2023-06-14T11:06:26;100623.10;;;23.93;69.87
75852;BME280;64500;52.632;20.656;2023-06-14T11:09:49;100616.52;;;23.82;67.86
75852;BME280;64500;52.632;20.656;2023-06-14T11:12:39;100621.58;;;23.87;67.18
75852;BME280;64500;52.632;20.656;2023-06-14T11:15:17;100622.61;;;23.65;64.45
75852;BME280;64500;52.632;20.656;2023-06-14T11:18:13;100621.70;;;23.56;65.11
75852;BME280;64500;52.632;20.656;2023-06-14T11:20:49;100617.13;;;23.71;65.32
75852;BME280;64500;52.632;20.656;2023-06-14T11:23:26;100620.77;;;23.78;63.83
75852;BME280;64500;52.632;20.656;2023-06-14T11:26:06;100616.77;;;23.35;61.98
75852;BME280;64500;52.632;20.656;2023-06-14T11:28:44;100614.73;;;23.04;62.41
75852;BME280;64500;52.632;20.656;2023-06-14T11:31:20;100613.35;;;22.62;61.59
75852;BME280;64500;52.632;20.656;2023-06-14T11:33:50;100609.98;;;22.46;62.05
75852;BME280;64500;52.632;20.656;2023-06-14T11:36:17;100611.14;;;22.37;62.34
75852;BME280;64500;52.632;20.656;2023-06-14T11:38:45;100608.30;;;22.29;62.30
75852;BME280;64500;52.632;20.656;2023-06-14T11:41:15;100608.48;;;22.02;62.14
75852;BME280;64500;52.632;20.656;2023-06-14T11:46:53;100607.61;;;21.54;63.32
75852;BME280;64500;52.632;20.656;2023-06-14T11:49:26;100607.10;;;21.17;63.04
75852;BME280;64500;52.632;20.656;2023-06-14T11:52:10;100618.37;;;20.49;63.17
75852;BME280;64500;52.632;20.656;2023-06-14T11:57:19;100624.23;;;20.18;65.25
75852;BME280;64500;52.632;20.656;2023-06-14T12:00:07;100617.98;;;20.11;65.38
75852;BME280;64500;52.632;20.656;2023-06-14T12:02:51;100618.03;;;19.90;65.35
75852;BME280;64500;52.632;20.656;2023-06-14T12:05:30;100615.11;;;19.38;68.27
75852;BME280;64500;52.632;20.656;2023-06-14T12:08:03;100618.51;;;18.66;73.73
75852;BME280;64500;52.632;20.656;2023-06-14T12:10:42;100619.30;;;18.34;73.65
75852;BME280;64500;52.632;20.656;2023-06-14T12:13:17;100618.05;;;18.07;74.53
75852;BME280;64500;52.632;20.656;2023-06-14T12:15:56;100620.49;;;17.76;75.61
75852;BME280;64500;52.632;20.656;2023-06-14T12:18:35;100620.56;;;17.67;76.16
75852;BME280;64500;52.632;20.656;2023-06-14T12:21:11;100621.09;;;17.57;76.49
75852;BME280;64500;52.632;20.656;2023-06-14T12:23:49;100618.04;;;17.60;76.82
75852;BME280;64500;52.632;20.656;2023-06-14T12:26:20;100618.38;;;17.82;77.45
75852;BME280;64500;52.632;20.656;2023-06-14T12:28:51;100618.64;;;18.13;77.47
75852;BME280;64500;52.632;20.656;2023-06-14T12:31:19;100620.58;;;18.44;77.29
75852;BME280;64500;52.632;20.656;2023-06-14T12:33:46;100618.23;;;18.91;77.20
75852;BME280;64500;52.632;20.656;2023-06-14T12:36:16;100617.27;;;19.41;76.71
75852;BME280;64500;52.632;20.656;2023-06-14T12:38:45;100619.61;;;19.81;75.74
75852;BME280;64500;52.632;20.656;2023-06-14T12:41:13;100620.43;;;20.42;76.00
75852;BME280;64500;52.632;20.656;2023-06-14T12:43:55;100615.72;;;21.00;75.16
75852;BME280;64500;52.632;20.656;2023-06-14T12:46:34;100612.19;;;21.85;75.23
75852;BME280;64500;52.632;20.656;2023-06-14T12:49:05;100612.77;;;22.29;72.62
75852;BME280;64500;52.632;20.656;2023-06-14T12:51:35;100607.60;;;22.36;69.75
75852;BME280;64500;52.632;20.656;2023-06-14T12:54:06;100606.39;;;22.01;67.92
75852;BME280;64500;52.632;20.656;2023-06-14T12:56:44;100606.98;;;21.58;68.00
75852;BME280;64500;52.632;20.656;2023-06-14T12:59:17;100605.34;;;21.22;66.99
75852;BME280;64500;52.632;20.656;2023-06-14T13:01:46;100609.10;;;20.75;66.50
75852;BME280;64500;52.632;20.656;2023-06-14T13:04:17;100616.61;;;20.25;65.60
75852;BME280;64500;52.632;20.656;2023-06-14T13:06:44;100618.58;;;19.52;68.27
75852;BME280;64500;52.632;20.656;2023-06-14T13:09:16;100619.69;;;18.34;70.15
75852;BME280;64500;52.632;20.656;2023-06-14T13:11:43;100621.61;;;17.53;71.77
75852;BME280;64500;52.632;20.656;2023-06-14T13:14:13;100618.61;;;17.01;73.60
75852;BME280;64500;52.632;20.656;2023-06-14T13:16:45;100617.80;;;16.71;75.38
75852;BME280;64500;52.632;20.656;2023-06-14T13:19:15;100615.88;;;16.42;76.03
75852;BME280;64500;52.632;20.656;2023-06-14T13:21:53;100612.61;;;16.32;77.18
75852;BME280;64500;52.632;20.656;2023-06-14T13:24:31;100618.70;;;16.27;77.67
75852;BME280;64500;52.632;20.656;2023-06-14T13:27:00;100613.73;;;16.38;78.85
75852;BME280;64500;52.632;20.656;2023-06-14T13:29:30;100609.20;;;16.52;79.10
75852;BME280;64500;52.632;20.656;2023-06-14T13:32:01;100606.88;;;16.72;79.42